createdAt,value
2018-06-10T00:02:25.082Z,22.01
2018-06-10T00:04:55.053Z,21.84
2018-06-10T00:07:26.235Z,22.01
2018-06-10T00:10:00.276Z,21.89
2018-06-10T00:12:30.272Z,22.02
2018-06-10T00:15:01.417Z,21.83
2018-06-10T00:17:31.204Z,21.82
2018-06-10T00:20:00.894Z,21.77
2018-06-10T00:22:30.519Z,21.76
2018-06-10T00:25:00.370Z,21.76
2018-06-10T00:27:30.142Z,21.67
2018-06-10T00:29:59.745Z,21.63
2018-06-10T00:32:29.343Z,21.64
2018-06-10T00:34:58.986Z,21.62
2018-06-10T00:37:28.663Z,21.58
2018-06-10T00:39:58.282Z,21.52
2018-06-10T00:42:27.909Z,21.51
2018-06-10T00:44:57.585Z,21.48
2018-06-10T00:47:27.314Z,21.43
2018-06-10T00:49:57.032Z,21.42
2018-06-10T00:52:26.608Z,21.39
2018-06-10T00:54:56.324Z,21.35
2018-06-10T00:57:25.953Z,21.29
2018-06-10T00:59:55.695Z,21.23
2018-06-10T01:02:25.735Z,21.45
2018-06-10T01:04:55.394Z,21.41
2018-06-10T01:07:27.959Z,21.40
2018-06-10T01:10:00.442Z,21.37
2018-06-10T01:12:30.463Z,21.31
2018-06-10T01:15:06.328Z,21.20
2018-06-10T01:17:37.977Z,21.09
2018-06-10T01:20:11.416Z,21.08
2018-06-10T01:22:41.049Z,21.17
2018-06-10T01:25:10.690Z,21.19
2018-06-10T01:27:40.426Z,21.21
2018-06-10T01:30:09.982Z,21.27
2018-06-10T01:32:39.615Z,21.33
2018-06-10T01:35:09.289Z,21.25
2018-06-10T01:37:38.899Z,21.15
2018-06-10T01:40:08.612Z,21.07
2018-06-10T01:42:38.293Z,21.06
2018-06-10T01:45:08.013Z,20.99
2018-06-10T01:47:37.668Z,20.99
2018-06-10T01:50:07.388Z,20.80
2018-06-10T01:52:37.104Z,20.82
2018-06-10T01:55:06.857Z,20.86
2018-06-10T01:57:36.421Z,20.74
2018-06-10T02:00:06.129Z,20.93
2018-06-10T02:02:35.761Z,20.89
2018-06-10T02:05:05.747Z,20.79
2018-06-10T02:07:35.343Z,21.00
2018-06-10T02:10:05.195Z,20.90
2018-06-10T02:12:34.723Z,20.90
2018-06-10T02:15:04.481Z,20.90
2018-06-10T02:17:34.127Z,20.93
2018-06-10T02:20:03.978Z,20.87
2018-06-10T02:22:33.707Z,20.74
2018-06-10T02:25:03.237Z,20.56
2018-06-10T02:27:32.919Z,20.48
2018-06-10T02:30:02.656Z,20.07
2018-06-10T02:32:32.352Z,19.95
2018-06-10T02:35:01.997Z,19.57
2018-06-10T02:37:31.658Z,19.51
2018-06-10T02:40:01.338Z,19.49
2018-06-10T02:42:31.016Z,19.46
2018-06-10T02:45:00.742Z,19.49
2018-06-10T02:47:30.402Z,19.33
2018-06-10T02:50:00.144Z,19.34
2018-06-10T02:52:29.815Z,19.19
2018-06-10T02:54:59.530Z,19.00
2018-06-10T02:57:29.278Z,19.07
2018-06-10T02:59:58.886Z,19.14
2018-06-10T03:02:28.620Z,19.19
2018-06-10T03:04:58.273Z,19.10
2018-06-10T03:07:28.054Z,19.05
2018-06-10T03:09:57.990Z,19.02
2018-06-10T03:12:27.678Z,19.06
2018-06-10T03:14:57.232Z,19.11
2018-06-10T03:17:26.829Z,19.09
2018-06-10T03:19:56.490Z,19.00
2018-06-10T03:22:26.131Z,19.06
2018-06-10T03:24:55.467Z,19.07
2018-06-10T03:27:25.055Z,19.22
2018-06-10T03:29:54.781Z,19.22
2018-06-10T03:32:24.327Z,19.06
2018-06-10T03:34:53.952Z,19.03
2018-06-10T03:37:23.581Z,19.08
2018-06-10T03:39:53.206Z,19.14
2018-06-10T03:42:22.924Z,19.07
2018-06-10T03:44:52.519Z,19.02
2018-06-10T03:47:22.325Z,19.02
2018-06-10T03:49:52.093Z,19.07
2018-06-10T03:52:21.799Z,18.99
2018-06-10T03:54:51.419Z,18.99
2018-06-10T03:57:21.016Z,18.94
2018-06-10T03:59:50.565Z,18.92
2018-06-10T04:02:20.351Z,19.11
2018-06-10T04:04:50.023Z,19.08
2018-06-10T04:07:19.717Z,19.04
2018-06-10T04:09:49.465Z,18.93
2018-06-10T04:12:19.013Z,18.89
2018-06-10T04:14:48.744Z,18.74
2018-06-10T04:17:18.323Z,18.76
2018-06-10T04:19:47.850Z,18.65
2018-06-10T04:22:17.472Z,18.75
2018-06-10T04:24:47.100Z,18.76
2018-06-10T04:27:16.826Z,18.78
2018-06-10T04:29:46.385Z,18.75
2018-06-10T04:32:16.041Z,18.75
2018-06-10T04:34:46.551Z,18.84
2018-06-10T04:37:16.231Z,18.73
2018-06-10T04:39:45.759Z,18.74
2018-06-10T04:42:15.451Z,18.72
2018-06-10T04:44:45.019Z,18.75
2018-06-10T04:47:15.005Z,18.72
2018-06-10T04:49:44.584Z,18.75
2018-06-10T04:52:14.215Z,18.78
2018-06-10T04:54:43.913Z,18.71
2018-06-10T04:57:13.606Z,18.74
2018-06-10T04:59:43.196Z,18.74
2018-06-10T05:02:12.957Z,18.76
2018-06-10T05:04:42.577Z,18.88
2018-06-10T05:07:12.486Z,18.90
2018-06-10T05:09:42.044Z,18.82
2018-06-10T05:12:11.657Z,18.83
2018-06-10T05:14:41.376Z,18.82
2018-06-10T05:17:10.984Z,18.90
2018-06-10T05:19:40.677Z,18.98
2018-06-10T05:22:10.341Z,19.02
2018-06-10T05:24:39.895Z,18.90
2018-06-10T05:27:09.521Z,18.94
2018-06-10T05:29:38.826Z,18.92
2018-06-10T05:32:08.373Z,18.94
2018-06-10T05:34:37.979Z,18.81
2018-06-10T05:37:07.627Z,18.77
2018-06-10T05:39:37.153Z,18.77
2018-06-10T05:42:06.995Z,18.79
2018-06-10T05:44:36.582Z,18.88
2018-06-10T05:47:06.194Z,18.96
2018-06-10T05:49:35.813Z,18.81
2018-06-10T05:52:05.658Z,18.86
2018-06-10T05:54:35.309Z,18.93
2018-06-10T05:57:04.873Z,18.90
2018-06-10T05:59:34.457Z,18.84
2018-06-10T06:02:04.311Z,18.68
2018-06-10T06:04:33.963Z,18.71
2018-06-10T06:07:03.693Z,18.64
2018-06-10T06:09:39.946Z,18.67
2018-06-10T06:12:09.599Z,18.78
2018-06-10T06:14:39.219Z,18.87
2018-06-10T06:17:09.185Z,18.84
2018-06-10T06:19:38.855Z,18.69
2018-06-10T06:22:08.447Z,18.79
2018-06-10T06:24:38.178Z,18.85
2018-06-10T06:27:14.551Z,18.85
2018-06-10T06:29:44.260Z,18.74
2018-06-10T06:32:13.965Z,18.77
2018-06-10T06:34:43.574Z,18.80
2018-06-10T06:37:13.236Z,18.72
2018-06-10T06:39:42.844Z,18.57
2018-06-10T06:42:12.456Z,18.56
2018-06-10T06:44:42.033Z,18.72
2018-06-10T06:47:11.668Z,18.87
2018-06-10T06:49:41.372Z,18.81
2018-06-10T06:52:11.072Z,18.83
2018-06-10T06:54:40.772Z,18.88
2018-06-10T06:57:10.355Z,18.84
2018-06-10T06:59:39.932Z,18.84
2018-06-10T07:02:09.567Z,18.71
2018-06-10T07:04:39.217Z,19.15
2018-06-10T07:07:08.780Z,19.35
2018-06-10T07:09:38.762Z,19.38
2018-06-10T07:12:08.642Z,19.22
2018-06-10T07:14:38.295Z,19.43
2018-06-10T07:17:07.934Z,19.30
2018-06-10T07:19:37.566Z,19.22
2018-06-10T07:22:07.187Z,19.70
2018-06-10T07:24:36.732Z,19.67
2018-06-10T07:27:09.227Z,19.51
2018-06-10T07:29:38.998Z,19.55
2018-06-10T07:32:08.543Z,19.56
2018-06-10T07:34:38.157Z,19.71
2018-06-10T07:37:07.794Z,19.77
2018-06-10T07:39:37.348Z,19.49
2018-06-10T07:42:06.992Z,19.62
2018-06-10T07:44:37.337Z,19.57
2018-06-10T07:47:06.867Z,19.54
2018-06-10T07:49:36.576Z,19.63
2018-06-10T07:52:06.137Z,19.65
2018-06-10T07:54:35.779Z,19.62
2018-06-10T07:57:05.377Z,19.83
2018-06-10T07:59:34.926Z,20.16
2018-06-10T08:02:05.010Z,20.25
2018-06-10T08:04:34.616Z,20.22
2018-06-10T08:07:04.247Z,20.60
2018-06-10T08:09:33.969Z,20.12
2018-06-10T08:12:03.597Z,20.48
2018-06-10T08:14:33.443Z,20.66
2018-06-10T08:17:03.329Z,20.78
2018-06-10T08:19:32.991Z,21.00
2018-06-10T08:22:02.635Z,21.19
2018-06-10T08:24:32.258Z,21.00
2018-06-10T08:27:03.408Z,20.99
2018-06-10T08:29:33.151Z,21.33
2018-06-10T08:32:02.953Z,21.08
2018-06-10T08:34:32.815Z,21.75
2018-06-10T08:37:02.654Z,21.93
2018-06-10T08:39:32.348Z,22.15
2018-06-10T08:42:02.002Z,22.64
2018-06-10T08:44:31.774Z,21.71
2018-06-10T08:47:01.537Z,21.59
2018-06-10T08:49:31.538Z,21.92
2018-06-10T08:52:01.208Z,21.94
2018-06-10T08:54:30.807Z,21.58
2018-06-10T08:57:00.490Z,21.64
2018-06-10T08:59:30.179Z,21.57
2018-06-10T09:01:59.725Z,21.81
2018-06-10T09:04:29.548Z,22.89
2018-06-10T09:06:59.260Z,21.90
2018-06-10T09:09:28.864Z,21.74
2018-06-10T09:11:58.514Z,21.53
2018-06-10T09:14:28.209Z,21.79
2018-06-10T09:16:57.826Z,21.65
2018-06-10T09:19:27.423Z,21.34
2018-06-10T09:21:57.066Z,21.65
2018-06-10T09:24:26.737Z,21.39
2018-06-10T09:26:56.364Z,21.46
2018-06-10T09:29:26.091Z,21.47
2018-06-10T09:31:55.749Z,21.90
2018-06-10T09:34:25.350Z,21.90
2018-06-10T09:36:55.250Z,21.57
2018-06-10T09:39:24.910Z,21.41
2018-06-10T09:41:54.566Z,21.99
2018-06-10T09:44:24.206Z,22.68
2018-06-10T09:46:53.779Z,23.00
2018-06-10T09:49:23.438Z,23.76
2018-06-10T09:51:53.052Z,23.20
2018-06-10T09:54:22.649Z,23.04
2018-06-10T09:56:52.310Z,22.63
2018-06-10T09:59:22.040Z,22.71
2018-06-10T10:01:51.656Z,23.95
2018-06-10T10:04:21.252Z,24.78
2018-06-10T10:06:50.862Z,23.84
2018-06-10T10:09:20.464Z,23.62
2018-06-10T10:11:50.046Z,24.24
2018-06-10T10:14:19.741Z,25.34
2018-06-10T10:16:49.357Z,24.68
2018-06-10T10:19:19.303Z,23.89
2018-06-10T10:21:49.253Z,24.35
2018-06-10T10:24:18.856Z,24.15
2018-06-10T10:26:48.429Z,24.59
2018-06-10T10:29:18.035Z,23.41
2018-06-10T10:31:47.909Z,25.01
2018-06-10T10:34:17.731Z,25.44
2018-06-10T10:36:47.469Z,24.39
2018-06-10T10:39:17.263Z,23.57
2018-06-10T10:41:47.052Z,23.29
2018-06-10T10:44:19.644Z,23.30
2018-06-10T10:46:49.269Z,23.58
2018-06-10T10:49:18.850Z,25.06
2018-06-10T10:51:48.460Z,24.60
2018-06-10T10:54:17.984Z,23.63
2018-06-10T10:56:47.647Z,24.81
2018-06-10T10:59:17.314Z,24.62
2018-06-10T11:01:46.986Z,24.99
2018-06-10T11:04:16.505Z,23.77
2018-06-10T11:06:46.153Z,24.50
2018-06-10T11:09:15.676Z,23.64
2018-06-10T11:11:45.253Z,24.13
2018-06-10T11:14:14.804Z,24.42
2018-06-10T11:16:44.388Z,24.21
2018-06-10T11:19:14.086Z,23.75
2018-06-10T11:21:43.735Z,24.30
2018-06-10T11:24:13.871Z,23.39
2018-06-10T11:26:43.679Z,23.77
2018-06-10T11:29:13.375Z,23.91
2018-06-10T11:31:43.262Z,23.62
2018-06-10T11:34:13.222Z,23.88
2018-06-10T11:36:43.292Z,23.16
2018-06-10T11:39:13.479Z,23.61
2018-06-10T11:41:43.277Z,24.32
2018-06-10T11:44:12.991Z,23.52
2018-06-10T11:46:43.166Z,23.84
2018-06-10T11:49:12.911Z,23.88
2018-06-10T11:51:42.522Z,23.70
2018-06-10T11:54:12.232Z,24.28
2018-06-10T11:56:42.008Z,23.91
2018-06-10T11:59:11.688Z,24.04
2018-06-10T12:01:41.910Z,23.70
2018-06-10T12:04:11.547Z,24.10
2018-06-10T12:06:41.270Z,23.27
2018-06-10T12:09:10.825Z,22.63
2018-06-10T12:11:40.511Z,22.99
2018-06-10T12:14:10.177Z,22.56
2018-06-10T12:16:40.077Z,23.06
2018-06-10T12:19:09.868Z,23.30
2018-06-10T12:21:39.537Z,23.00
2018-06-10T12:24:09.297Z,23.74
2018-06-10T12:26:39.073Z,23.06
2018-06-10T12:29:08.754Z,23.87
2018-06-10T12:31:38.572Z,23.80
2018-06-10T12:34:08.303Z,23.21
2018-06-10T12:36:37.950Z,23.27
2018-06-10T12:39:09.387Z,22.86
2018-06-10T12:41:39.259Z,23.04
2018-06-10T12:44:08.887Z,22.59
2018-06-10T12:46:38.555Z,22.59
2018-06-10T12:49:09.125Z,23.03
2018-06-10T12:51:38.739Z,22.83
2018-06-10T12:54:08.486Z,22.86
2018-06-10T12:56:38.143Z,23.21
2018-06-10T12:59:07.952Z,23.18
2018-06-10T13:01:37.661Z,22.65
2018-06-10T13:04:07.524Z,22.44
2018-06-10T13:06:37.720Z,22.33
2018-06-10T13:09:09.233Z,22.94
2018-06-10T13:11:38.980Z,22.65
2018-06-10T13:14:08.868Z,22.90
2018-06-10T13:16:38.677Z,22.87
2018-06-10T13:19:08.401Z,23.24
2018-06-10T13:21:38.213Z,22.98
2018-06-10T13:24:07.902Z,23.50
2018-06-10T13:26:37.523Z,22.91
2018-06-10T13:29:07.202Z,23.14
2018-06-10T13:31:36.791Z,22.92
2018-06-10T13:34:06.494Z,23.50
2018-06-10T13:36:36.225Z,23.10
2018-06-10T13:39:08.269Z,23.00
2018-06-10T13:41:37.918Z,23.07
2018-06-10T13:44:07.748Z,23.50
2018-06-10T13:46:37.425Z,22.95
2018-06-10T13:49:07.147Z,23.84
2018-06-10T13:51:36.861Z,23.35
2018-06-10T13:54:06.569Z,22.99
2018-06-10T13:56:36.160Z,23.18
2018-06-10T13:59:06.110Z,23.33
2018-06-10T14:01:35.774Z,23.42
2018-06-10T14:04:05.389Z,23.67
2018-06-10T14:06:34.951Z,23.59
2018-06-10T14:09:06.285Z,23.34
2018-06-10T14:11:35.852Z,23.51
2018-06-10T14:14:05.483Z,23.48
2018-06-10T14:16:35.171Z,23.84
2018-06-10T14:19:04.968Z,23.20
2018-06-10T14:21:34.565Z,23.61
2018-06-10T14:24:04.853Z,23.53
2018-06-10T14:26:34.510Z,23.75
2018-06-10T14:29:04.189Z,24.10
2018-06-10T14:31:36.661Z,23.89
2018-06-10T14:34:06.408Z,23.73
2018-06-10T14:36:36.043Z,23.49
2018-06-10T14:39:09.216Z,23.72
2018-06-10T14:41:38.855Z,23.22
2018-06-10T14:44:08.526Z,23.24
2018-06-10T14:46:38.196Z,23.20
2018-06-10T14:49:07.899Z,23.26
2018-06-10T14:51:37.479Z,23.46
2018-06-10T14:54:07.502Z,23.61
2018-06-10T14:56:37.125Z,23.24
2018-06-10T14:59:06.817Z,23.45
2018-06-10T15:01:36.638Z,23.48
2018-06-10T15:04:06.475Z,23.10
2018-06-10T15:06:36.135Z,23.41
2018-06-10T15:09:08.256Z,23.89
2018-06-10T15:11:38.557Z,23.57
2018-06-10T15:14:08.196Z,23.91
2018-06-10T15:16:37.895Z,23.96
2018-06-10T15:19:07.564Z,23.73
2018-06-10T15:21:37.220Z,23.56
2018-06-10T15:24:06.948Z,23.57
2018-06-10T15:26:36.600Z,23.89
2018-06-10T15:29:06.309Z,23.76
2018-06-10T15:31:35.952Z,23.68
2018-06-10T15:34:05.669Z,23.47
2018-06-10T15:36:35.313Z,23.85
2018-06-10T15:39:07.747Z,23.48
2018-06-10T15:41:37.400Z,23.21
2018-06-10T15:44:07.180Z,23.99
2018-06-10T15:46:36.862Z,23.66
2018-06-10T15:49:06.709Z,24.02
2018-06-10T15:51:36.672Z,23.79
2018-06-10T15:54:06.380Z,23.52
2018-06-10T15:56:36.325Z,23.51
2018-06-10T15:59:06.039Z,23.28
2018-06-10T16:01:35.782Z,23.04
2018-06-10T16:04:05.547Z,23.03
2018-06-10T16:06:35.182Z,23.12
2018-06-10T16:09:06.716Z,23.43
2018-06-10T16:11:36.370Z,23.80
2018-06-10T16:14:06.038Z,23.77
2018-06-10T16:16:35.776Z,23.37
2018-06-10T16:19:06.182Z,23.77
2018-06-10T16:21:35.905Z,23.93
2018-06-10T16:24:05.592Z,23.64
2018-06-10T16:26:35.235Z,23.41
2018-06-10T16:29:04.986Z,23.06
2018-06-10T16:31:34.858Z,23.02
2018-06-10T16:34:04.511Z,23.06
2018-06-10T16:36:34.163Z,23.31
2018-06-10T16:39:04.182Z,23.00
2018-06-10T16:41:33.896Z,23.05
2018-06-10T16:44:03.721Z,23.06
2018-06-10T16:46:33.620Z,23.30
2018-06-10T16:49:03.331Z,23.25
2018-06-10T16:51:32.953Z,23.13
2018-06-10T16:54:02.808Z,23.47
2018-06-10T16:56:32.509Z,24.07
2018-06-10T16:59:02.851Z,23.72
2018-06-10T17:01:35.837Z,23.60
2018-06-10T17:04:05.861Z,23.83
2018-06-10T17:06:35.512Z,23.34
2018-06-10T17:09:08.316Z,22.97
2018-06-10T17:11:38.194Z,23.20
2018-06-10T17:14:07.929Z,23.31
2018-06-10T17:16:37.706Z,23.34
2018-06-10T17:19:07.806Z,22.87
2018-06-10T17:21:37.666Z,22.88
2018-06-10T17:24:07.270Z,22.81
2018-06-10T17:26:36.913Z,22.67
2018-06-10T17:29:06.548Z,22.52
2018-06-10T17:31:36.152Z,22.63
2018-06-10T17:34:06.014Z,22.70
2018-06-10T17:36:35.792Z,22.58
2018-06-10T17:39:07.848Z,22.53
2018-06-10T17:41:37.584Z,22.63
2018-06-10T17:44:07.323Z,22.54
2018-06-10T17:46:37.126Z,22.54
2018-06-10T17:49:06.936Z,22.61
2018-06-10T17:51:36.681Z,22.68
2018-06-10T17:54:06.567Z,22.40
2018-06-10T17:56:36.444Z,22.74
2018-06-10T17:59:06.734Z,22.62
2018-06-10T18:01:36.346Z,22.54
2018-06-10T18:17:06.389Z,22.63
2018-06-10T18:19:36.088Z,22.81
2018-06-10T18:22:05.671Z,22.58
2018-06-10T18:24:35.285Z,22.38
2018-06-10T18:27:05.262Z,22.31
2018-06-10T18:29:34.985Z,22.18
2018-06-10T18:32:04.638Z,22.17
2018-06-10T18:34:34.294Z,22.24
2018-06-10T18:37:04.128Z,22.04
2018-06-10T18:39:33.927Z,22.12
2018-06-10T18:42:03.615Z,21.92
2018-06-10T18:44:33.442Z,21.94
2018-06-10T18:47:03.185Z,21.93
2018-06-10T18:49:32.846Z,22.06
2018-06-10T18:52:02.621Z,22.00
2018-06-10T18:54:32.298Z,22.01
2018-06-10T18:57:02.159Z,21.99
2018-06-10T18:59:31.979Z,21.96
2018-06-10T19:02:01.854Z,21.87
2018-06-10T19:04:38.590Z,21.85
2018-06-10T19:07:08.428Z,21.64
2018-06-10T19:09:38.477Z,21.58
2018-06-10T19:12:08.302Z,21.50
2018-06-10T19:14:38.217Z,21.48
2018-06-10T19:17:07.969Z,21.49
2018-06-10T19:19:37.658Z,21.42
2018-06-10T19:22:10.239Z,21.40
2018-06-10T19:24:39.929Z,21.29
2018-06-10T19:27:09.556Z,21.29
2018-06-10T19:29:39.227Z,21.23
2018-06-10T19:32:08.879Z,21.11
2018-06-10T19:34:38.664Z,21.01
2018-06-10T19:37:08.354Z,20.94
2018-06-10T19:39:38.115Z,20.88
2018-06-10T19:42:07.982Z,20.84
2018-06-10T19:44:37.887Z,20.82
2018-06-10T19:47:08.354Z,20.79
2018-06-10T19:49:38.103Z,20.75
2018-06-10T19:52:07.856Z,20.75
2018-06-10T19:54:37.582Z,20.65
2018-06-10T19:57:07.316Z,20.61
2018-06-10T19:59:36.992Z,20.67
2018-06-10T20:02:07.070Z,20.34
2018-06-10T20:04:36.890Z,20.21
2018-06-10T20:07:06.611Z,20.17
2018-06-10T20:09:36.337Z,20.13
2018-06-10T20:12:06.223Z,20.06
2018-06-10T20:14:35.866Z,19.94
2018-06-10T20:17:05.637Z,19.91
2018-06-10T20:19:35.342Z,19.80
2018-06-10T20:22:04.944Z,19.79
2018-06-10T20:24:34.738Z,19.83
2018-06-10T20:27:04.490Z,19.66
2018-06-10T20:29:34.208Z,19.59
2018-06-10T20:32:04.079Z,19.52
2018-06-10T20:34:33.909Z,19.43
2018-06-10T20:37:03.558Z,19.36
2018-06-10T20:39:33.258Z,19.15
2018-06-10T20:42:03.077Z,19.11
2018-06-10T20:44:32.755Z,19.23
2018-06-10T20:47:02.444Z,19.08
2018-06-10T20:49:32.131Z,19.07
2018-06-10T20:52:02.546Z,19.00
2018-06-10T20:54:32.312Z,19.04
2018-06-10T20:57:01.984Z,19.08
2018-06-10T20:59:31.669Z,18.95
2018-06-10T21:02:01.076Z,18.81
2018-06-10T21:04:30.842Z,18.65
2018-06-10T21:07:00.532Z,18.56
2018-06-10T21:09:30.277Z,18.50
2018-06-10T21:12:00.098Z,18.51
2018-06-10T21:14:30.029Z,18.47
2018-06-10T21:16:59.719Z,18.46
2018-06-10T21:19:29.496Z,18.48
2018-06-10T21:21:59.309Z,18.38
2018-06-10T21:24:29.077Z,18.32
2018-06-10T21:26:58.831Z,18.28
2018-06-10T21:29:28.562Z,18.23
2018-06-10T21:31:58.214Z,18.26
2018-06-10T21:34:27.970Z,18.23
2018-06-10T21:36:57.699Z,18.17
2018-06-10T21:39:27.402Z,18.01
2018-06-10T21:41:57.058Z,17.98
2018-06-10T21:44:26.830Z,17.85
2018-06-10T21:46:56.499Z,17.90
2018-06-10T21:49:26.251Z,17.76
2018-06-10T21:51:55.864Z,17.84
2018-06-10T21:54:25.678Z,17.79
2018-06-10T21:56:55.391Z,17.77
2018-06-10T21:59:25.088Z,17.74
2018-06-10T22:01:54.778Z,17.70
2018-06-10T22:04:24.477Z,17.72
2018-06-10T22:06:54.151Z,17.69
2018-06-10T22:09:23.888Z,17.71
2018-06-10T22:11:53.689Z,17.81
2018-06-10T22:14:23.370Z,17.78
2018-06-10T22:16:53.112Z,17.74
2018-06-10T22:19:22.753Z,17.75
2018-06-10T22:21:52.398Z,17.64
2018-06-10T22:24:22.026Z,17.63
2018-06-10T22:26:51.673Z,17.63
2018-06-10T22:29:21.403Z,17.75
2018-06-10T22:31:51.060Z,17.67
2018-06-10T22:34:20.680Z,17.48
2018-06-10T22:36:50.476Z,17.51
2018-06-10T22:39:21.004Z,17.61
2018-06-10T22:41:50.654Z,17.62
2018-06-10T22:44:20.359Z,17.55
2018-06-10T22:46:50.004Z,17.42
2018-06-10T22:49:19.639Z,17.52
2018-06-10T22:51:49.228Z,17.40
2018-06-10T22:54:41.450Z,17.32
2018-06-10T22:57:11.214Z,17.29
2018-06-10T22:59:40.907Z,17.37
2018-06-10T23:02:11.486Z,17.30
2018-06-10T23:04:41.104Z,17.22
2018-06-10T23:07:10.803Z,17.13
2018-06-10T23:09:40.443Z,17.09
2018-06-10T23:12:10.180Z,17.07
2018-06-10T23:14:39.829Z,17.09
2018-06-10T23:17:09.480Z,17.04
2018-06-10T23:19:39.116Z,17.07
2018-06-10T23:22:08.745Z,17.07
2018-06-10T23:24:38.288Z,17.03
2018-06-10T23:27:07.933Z,17.06
2018-06-10T23:29:37.481Z,17.14
2018-06-10T23:32:07.099Z,17.20
2018-06-10T23:34:36.850Z,17.08
2018-06-10T23:37:06.516Z,17.13
2018-06-10T23:39:36.144Z,16.97
2018-06-10T23:42:05.877Z,16.83
2018-06-10T23:44:35.723Z,16.91
2018-06-10T23:47:05.599Z,16.88
2018-06-10T23:49:35.409Z,16.81
2018-06-10T23:52:05.017Z,16.85
2018-06-10T23:54:34.606Z,16.74
2018-06-10T23:57:04.194Z,16.67
2018-06-10T23:59:33.820Z,16.70
